Time,TemperatureF,DewpointF,PressureIn,WindDirection,WindDirectionDegrees,WindSpeedMPH,WindSpeedGustMPH,Humidity,HourlyPrecipIn,Conditions,Clouds,dailyrainin,SoftwareType,DateUTC
2013-03-13 00:00:00,45.3,21.2,29.88,East,90,1.2,1.2,38,0.00,CLR,,0.00,WeatherDisplay:10.37,2013-03-13 06:00:00,
2013-03-13 00:05:00,45.0,20.8,29.87,East,90,0.0,0.0,38,0.00,CLR,,0.00,WeatherDisplay:10.37,2013-03-13 06:05:00,
2013-03-13 00:10:00,44.8,20.7,29.87,ENE,68,1.2,1.2,38,0.00,CLR,,0.00,WeatherDisplay:10.37,2013-03-13 06:10:00,
2013-03-13 00:15:00,44.4,21.0,29.87,NNE,22,0.0,0.0,39,0.00,CLR,,0.00,WeatherDisplay:10.37,2013-03-13 06:15:00,
2013-03-13 00:20:00,44.4,21.6,29.87,NNE,22,0.0,0.5,40,0.00,CLR,,0.00,WeatherDisplay:10.37,2013-03-13 06:20:00,
2013-03-13 00:25:00,44.4,21.6,29.87,NE,45,0.0,0.0,40,0.00,CLR,,0.00,WeatherDisplay:10.37,2013-03-13 06:25:00,
2013-03-13 00:30:00,44.2,21.4,29.87,NNE,22,0.5,0.5,40,0.00,CLR,,0.00,WeatherDisplay:10.37,2013-03-13 06:30:00,
2013-03-13 00:35:00,44.2,22.6,29.87,NNE,22,0.0,0.0,42,0.00,CLR,,0.00,WeatherDisplay:10.37,2013-03-13 06:35:00,
2013-03-13 00:40:00,44.6,22.9,29.87,NE,45,0.0,0.0,42,0.00,CLR,,0.00,WeatherDisplay:10.37,2013-03-13 06:40:00,
2013-03-13 00:45:00,44.6,22.9,29.87,NNE,22,0.0,0.5,42,0.00,CLR,,0.00,WeatherDisplay:10.37,2013-03-13 06:45:00,
2013-03-13 00:50:00,44.6,22.9,29.86,North,0,0.2,0.2,42,0.00,CLR,,0.00,WeatherDisplay:10.37,2013-03-13 06:50:00,
2013-03-13 00:55:00,44.4,22.7,29.86,NNE,22,0.5,0.5,42,0.00,CLR,,0.00,WeatherDisplay:10.37,2013-03-13 06:55:00,
2013-03-13 01:00:00,44.2,22.6,29.86,North,0,0.0,0.0,42,0.00,CLR,,0.00,WeatherDisplay:10.37,2013-03-13 07:00:00,
2013-03-13 01:05:00,44.1,22.4,29.87,North,0,1.2,0.0,42,0.00,CLR,,0.00,WeatherDisplay:10.37,2013-03-13 07:05:00,
2013-03-13 01:10:00,43.9,22.2,29.87,North,0,0.0,0.0,42,0.00,CLR,,0.00,WeatherDisplay:10.37,2013-03-13 07:10:00,
2013-03-13 01:15:00,43.7,22.1,29.87,North,0,0.0,0.0,42,0.00,CLR,,0.00,WeatherDisplay:10.37,2013-03-13 07:15:00,
2013-03-13 01:20:00,43.5,21.9,29.87,North,0,0.0,0.0,42,0.00,CLR,,0.00,WeatherDisplay:10.37,2013-03-13 07:20:00,
2013-03-13 01:25:00,43.5,21.9,29.87,North,0,0.0,0.0,42,0.00,CLR,,0.00,WeatherDisplay:10.37,2013-03-13 07:25:00,
2013-03-13 01:30:00,43.5,22.5,29.87,North,0,0.0,0.0,43,0.00,CLR,,0.00,WeatherDisplay:10.37,2013-03-13 07:30:00,
2013-03-13 01:35:00,43.3,21.8,29.87,North,0,0.0,0.0,42,0.00,CLR,,0.00,WeatherDisplay:10.37,2013-03-13 07:35:00,
2013-03-13 01:40:00,43.2,21.6,29.87,North,0,0.0,0.0,42,0.00,CLR,,0.00,WeatherDisplay:10.37,2013-03-13 07:40:00,
2013-03-13 01:45:00,42.8,21.8,29.87,WSW,248,2.3,2.3,43,0.00,CLR,,0.00,WeatherDisplay:10.37,2013-03-13 07:45:00,
2013-03-13 01:50:00,43.0,22.5,29.87,NW,315,1.2,1.2,44,0.00,CLR,,0.00,WeatherDisplay:10.37,2013-03-13 07:50:00,
2013-03-13 01:55:00,43.2,22.7,29.87,SE,135,1.2,1.2,44,0.00,CLR,,0.00,WeatherDisplay:10.37,2013-03-13 07:55:00,
2013-03-13 02:00:00,43.0,22.0,29.87,SE,135,0.0,0.0,43,0.00,CLR,,0.00,WeatherDisplay:10.37,2013-03-13 08:00:00,
2013-03-13 02:07:00,42.6,21.7,29.88,SE,135,0.0,0.0,43,0.00,CLR,,0.00,WeatherDisplay:10.37,2013-03-13 08:07:00,
2013-03-13 02:12:00,42.3,21.3,29.88,SSE,158,1.2,1.2,43,0.00,CLR,,0.00,WeatherDisplay:10.37,2013-03-13 08:12:00,
2013-03-13 02:17:00,41.9,21.0,29.88,SE,135,1.2,1.2,43,0.00,CLR,,0.00,WeatherDisplay:10.37,2013-03-13 08:17:00,
2013-03-13 02:22:00,41.7,21.4,29.89,ESE,112,2.4,2.4,44,0.00,CLR,,0.00,WeatherDisplay:10.37,2013-03-13 08:22:00,
2013-03-13 02:27:00,41.5,21.2,29.89,ESE,112,1.2,1.2,44,0.00,CLR,,0.00,WeatherDisplay:10.37,2013-03-13 08:27:00,
2013-03-13 02:32:00,41.4,21.6,29.90,SSE,158,0.0,0.2,45,0.00,CLR,,0.00,WeatherDisplay:10.37,2013-03-13 08:32:00,
2013-03-13 02:37:00,41.2,21.4,29.90,SE,135,0.7,0.7,45,0.00,CLR,,0.00,WeatherDisplay:10.37,2013-03-13 08:37:00,
2013-03-13 02:42:00,41.0,21.3,29.90,ESE,112,0.2,0.2,45,0.00,CLR,,0.00,WeatherDisplay:10.37,2013-03-13 08:42:00,
2013-03-13 02:47:00,41.0,21.3,29.90,ESE,112,0.5,0.5,45,0.00,CLR,,0.00,WeatherDisplay:10.37,2013-03-13 08:47:00,
2013-03-13 02:53:00,40.8,21.6,29.90,ESE,112,0.0,0.0,46,0.00,CLR,,0.00,WeatherDisplay:10.37,2013-03-13 08:53:00,
2013-03-13 02:58:00,40.8,21.6,29.90,ESE,112,0.0,0.0,46,0.00,CLR,,0.00,WeatherDisplay:10.37,2013-03-13 08:58:00,
2013-03-13 03:03:00,40.6,21.4,29.90,ESE,112,0.0,0.0,46,0.00,CLR,,0.00,WeatherDisplay:10.37,2013-03-13 09:03:00,
2013-03-13 03:08:00,40.5,21.3,29.90,ESE,112,0.0,0.0,46,0.00,CLR,,0.00,WeatherDisplay:10.37,2013-03-13 09:08:00,
2013-03-13 03:13:00,40.3,21.1,29.90,ESE,112,0.0,0.0,46,0.00,CLR,,0.00,WeatherDisplay:10.37,2013-03-13 09:13:00,
2013-03-13 03:18:00,40.1,21.0,29.90,ENE,68,0.0,0.0,46,0.00,CLR,,0.00,WeatherDisplay:10.37,2013-03-13 09:18:00,
2013-03-13 03:23:00,39.9,21.3,29.89,ENE,68,0.0,0.0,47,0.00,CLR,,0.00,WeatherDisplay:10.37,2013-03-13 09:23:00,
2013-03-13 03:28:00,39.9,21.8,29.89,North,0,0.0,0.0,48,0.00,CLR,,0.00,WeatherDisplay:10.37,2013-03-13 09:28:00,
2013-03-13 03:33:00,39.7,21.6,29.89,North,0,0.0,0.0,48,0.00,CLR,,0.00,WeatherDisplay:10.37,2013-03-13 09:33:00,
2013-03-13 03:38:00,39.6,21.5,29.89,NNE,22,0.5,0.5,48,0.00,CLR,,0.00,WeatherDisplay:10.37,2013-03-13 09:38:00,
2013-03-13 03:43:00,39.4,20.8,29.89,NW,315,0.2,0.2,47,0.00,CLR,,0.00,WeatherDisplay:10.37,2013-03-13 09:43:00,
2013-03-13 03:48:00,39.2,21.6,29.89,NW,315,0.0,0.0,49,0.00,CLR,,0.00,WeatherDisplay:10.37,2013-03-13 09:48:00,
2013-03-13 03:53:00,39.2,21.1,29.89,NE,45,1.2,1.2,48,0.00,CLR,,0.00,WeatherDisplay:10.37,2013-03-13 09:53:00,
2013-03-13 03:58:00,39.0,21.0,29.89,East,90,0.0,0.0,48,0.00,CLR,,0.00,WeatherDisplay:10.37,2013-03-13 09:58:00,
2013-03-13 04:03:00,38.8,20.8,29.89,East,90,0.0,0.0,48,0.00,CLR,,0.00,WeatherDisplay:10.37,2013-03-13 10:03:00,
2013-03-13 04:08:00,38.8,20.8,29.89,ESE,112,0.0,0.0,48,0.00,CLR,,0.00,WeatherDisplay:10.37,2013-03-13 10:08:00,
2013-03-13 04:13:00,38.8,21.8,29.89,East,90,1.2,1.2,50,0.00,CLR,,0.00,WeatherDisplay:10.37,2013-03-13 10:13:00,
2013-03-13 04:18:00,39.0,22.4,29.89,WSW,248,1.2,0.0,51,0.00,CLR,,0.00,WeatherDisplay:10.37,2013-03-13 10:18:00,
2013-03-13 04:23:00,38.8,21.8,29.89,ENE,68,0.0,0.0,50,0.00,CLR,,0.00,WeatherDisplay:10.37,2013-03-13 10:23:00,
2013-03-13 04:28:00,38.8,21.8,29.89,NE,45,0.0,0.0,50,0.00,CLR,,0.00,WeatherDisplay:10.37,2013-03-13 10:28:00,
2013-03-13 04:33:00,38.5,21.4,29.89,North,0,0.0,0.0,50,0.00,CLR,,0.00,WeatherDisplay:10.37,2013-03-13 10:33:00,
2013-03-13 04:38:00,38.3,21.3,29.89,NNE,22,0.0,0.0,50,0.00,CLR,,0.00,WeatherDisplay:10.37,2013-03-13 10:38:00,
2013-03-13 04:43:00,38.1,21.1,29.89,NNE,22,0.0,0.0,50,0.00,CLR,,0.00,WeatherDisplay:10.37,2013-03-13 10:43:00,
2013-03-13 04:48:00,37.9,20.9,29.90,North,0,1.2,1.2,50,0.00,CLR,,0.00,WeatherDisplay:10.37,2013-03-13 10:48:00,
2013-03-13 04:53:00,37.8,21.2,29.90,NNW,338,0.0,0.0,51,0.00,CLR,,0.00,WeatherDisplay:10.37,2013-03-13 10:53:00,
2013-03-13 04:58:00,37.6,20.6,29.90,NNW,338,0.0,0.0,50,0.00,CLR,,0.00,WeatherDisplay:10.37,2013-03-13 10:58:00,
2013-03-13 05:03:00,37.4,20.4,29.91,NNW,338,0.0,0.0,50,0.00,CLR,,0.00,WeatherDisplay:10.37,2013-03-13 11:03:00,
2013-03-13 05:08:00,37.2,20.7,29.90,NNW,338,0.0,0.0,51,0.00,CLR,,0.00,WeatherDisplay:10.37,2013-03-13 11:08:00,
2013-03-13 05:13:00,37.0,20.6,29.91,NE,45,0.2,0.2,51,0.00,CLR,,0.00,WeatherDisplay:10.37,2013-03-13 11:13:00,
2013-03-13 05:18:00,37.0,20.6,29.91,ENE,68,0.0,0.2,51,0.00,CLR,,0.00,WeatherDisplay:10.37,2013-03-13 11:18:00,
2013-03-13 05:23:00,36.9,20.4,29.91,East,90,0.0,0.0,51,0.00,CLR,,0.00,WeatherDisplay:10.37,2013-03-13 11:23:00,
2013-03-13 05:28:00,36.7,20.7,29.91,East,90,0.0,0.0,52,0.00,CLR,,0.00,WeatherDisplay:10.37,2013-03-13 11:28:00,
2013-03-13 05:33:00,36.5,20.5,29.91,East,90,0.5,0.5,52,0.00,CLR,,0.00,WeatherDisplay:10.37,2013-03-13 11:33:00,
2013-03-13 05:38:00,36.3,20.8,29.91,East,90,0.0,0.0,53,0.00,CLR,,0.00,WeatherDisplay:10.37,2013-03-13 11:38:00,
2013-03-13 05:43:00,36.3,20.8,29.91,NE,45,0.0,0.0,53,0.00,CLR,,0.00,WeatherDisplay:10.37,2013-03-13 11:43:00,
2013-03-13 05:48:00,36.3,20.8,29.92,NNE,22,0.0,0.0,53,0.00,CLR,,0.00,WeatherDisplay:10.37,2013-03-13 11:48:00,
2013-03-13 05:53:00,36.3,21.2,29.91,East,90,1.2,1.2,54,0.00,CLR,,0.00,WeatherDisplay:10.37,2013-03-13 11:53:00,
2013-03-13 05:58:00,36.5,21.4,29.91,NE,45,1.2,1.2,54,0.00,CLR,,0.00,WeatherDisplay:10.37,2013-03-13 11:58:00,
2013-03-13 06:03:00,36.7,21.6,29.92,NE,45,0.0,0.0,54,0.00,CLR,,0.00,WeatherDisplay:10.37,2013-03-13 12:03:00,
2013-03-13 06:08:00,36.7,21.1,29.91,ENE,68,0.5,0.5,53,0.00,CLR,,0.00,WeatherDisplay:10.37,2013-03-13 12:08:00,
2013-03-13 06:13:00,36.7,21.1,29.92,ENE,68,1.2,1.2,53,0.00,CLR,,0.00,WeatherDisplay:10.37,2013-03-13 12:13:00,
2013-03-13 06:18:00,36.5,21.4,29.92,NE,45,0.0,0.0,54,0.00,CLR,,0.00,WeatherDisplay:10.37,2013-03-13 12:18:00,
2013-03-13 06:23:00,36.7,21.6,29.92,NE,45,0.0,0.0,54,0.00,CLR,,0.00,WeatherDisplay:10.37,2013-03-13 12:23:00,
2013-03-13 06:28:00,36.7,21.6,29.92,NE,45,0.0,0.0,54,0.00,CLR,,0.00,WeatherDisplay:10.37,2013-03-13 12:28:00,
2013-03-13 06:33:00,36.5,21.4,29.92,NE,45,0.0,0.0,54,0.00,CLR,,0.00,WeatherDisplay:10.37,2013-03-13 12:33:00,
2013-03-13 06:38:00,36.3,21.2,29.92,ENE,68,0.0,0.0,54,0.00,CLR,,0.00,WeatherDisplay:10.37,2013-03-13 12:38:00,
2013-03-13 06:43:00,36.3,21.2,29.93,East,90,0.5,0.5,54,0.00,CLR,,0.00,WeatherDisplay:10.37,2013-03-13 12:43:00,
2013-03-13 06:48:00,36.1,21.5,29.93,ENE,68,0.5,0.5,55,0.00,CLR,,0.00,WeatherDisplay:10.37,2013-03-13 12:48:00,
2013-03-13 06:53:00,36.0,21.3,29.93,ENE,68,1.2,1.2,55,0.00,CLR,,0.00,WeatherDisplay:10.37,2013-03-13 12:53:00,
2013-03-13 06:58:00,36.1,21.5,29.93,ENE,68,1.2,0.0,55,0.00,CLR,,0.00,WeatherDisplay:10.37,2013-03-13 12:58:00,
2013-03-13 07:03:00,36.0,21.3,29.92,East,90,0.0,0.0,55,0.00,CLR,,0.00,WeatherDisplay:10.37,2013-03-13 13:03:00,
2013-03-13 07:08:00,36.0,21.3,29.93,East,90,0.0,0.0,55,0.00,CLR,,0.00,WeatherDisplay:10.37,2013-03-13 13:08:00,
2013-03-13 07:13:00,35.8,21.2,29.93,East,90,0.0,0.0,55,0.00,CLR,,0.00,WeatherDisplay:10.37,2013-03-13 13:13:00,
2013-03-13 07:18:00,35.8,21.6,29.92,NE,45,0.5,0.5,56,0.00,CLR,,0.00,WeatherDisplay:10.37,2013-03-13 13:18:00,
2013-03-13 07:23:00,35.8,21.6,29.92,NE,45,0.0,0.0,56,0.00,CLR,,0.00,WeatherDisplay:10.37,2013-03-13 13:23:00,
2013-03-13 07:28:00,35.8,21.6,29.93,NNE,22,1.2,0.0,56,0.00,CLR,,0.00,WeatherDisplay:10.37,2013-03-13 13:28:00,
2013-03-13 07:33:00,35.8,21.6,29.93,NNE,22,0.0,0.0,56,0.00,CLR,,0.00,WeatherDisplay:10.37,2013-03-13 13:33:00,
2013-03-13 07:38:00,35.8,21.6,29.93,NNE,22,0.0,0.0,56,0.00,CLR,,0.00,WeatherDisplay:10.37,2013-03-13 13:38:00,
2013-03-13 07:43:00,35.6,21.9,29.93,NNE,22,0.0,0.0,57,0.00,CLR,,0.00,WeatherDisplay:10.37,2013-03-13 13:43:00,
2013-03-13 07:48:00,35.6,21.9,29.93,NNE,22,0.0,0.0,57,0.00,CLR,,0.00,WeatherDisplay:10.37,2013-03-13 13:48:00,
2013-03-13 07:53:00,35.6,22.3,29.93,North,0,0.0,0.2,58,0.00,CLR,,0.00,WeatherDisplay:10.37,2013-03-13 13:53:00,
2013-03-13 07:58:00,35.8,22.4,29.93,NNE,22,0.0,0.0,58,0.00,CLR,,0.00,WeatherDisplay:10.37,2013-03-13 13:58:00,
2013-03-13 08:03:00,36.0,22.6,29.93,NNE,22,1.2,1.2,58,0.00,CLR,,0.00,WeatherDisplay:10.37,2013-03-13 14:03:00,
2013-03-13 08:08:00,36.1,23.2,29.94,NNE,22,0.0,0.0,59,0.00,CLR,,0.00,WeatherDisplay:10.37,2013-03-13 14:08:00,
2013-03-13 08:13:00,36.3,23.8,29.94,NE,45,0.0,0.0,60,0.00,CLR,,0.00,WeatherDisplay:10.37,2013-03-13 14:13:00,
2013-03-13 08:18:00,36.9,24.3,29.95,NNE,22,0.0,0.0,60,0.00,CLR,,0.00,WeatherDisplay:10.37,2013-03-13 14:18:00,
2013-03-13 08:23:00,37.4,24.8,29.95,NNE,22,0.0,0.0,60,0.00,CLR,,0.00,WeatherDisplay:10.37,2013-03-13 14:23:00,
2013-03-13 08:28:00,37.8,24.7,29.95,NNE,22,0.0,0.0,59,0.00,CLR,,0.00,WeatherDisplay:10.37,2013-03-13 14:28:00,
2013-03-13 08:33:00,38.5,25.4,29.95,NNE,22,0.0,0.0,59,0.00,CLR,,0.00,WeatherDisplay:10.37,2013-03-13 14:33:00,
2013-03-13 08:38:00,39.2,26.1,29.96,ENE,68,0.5,0.5,59,0.00,CLR,,0.00,WeatherDisplay:10.37,2013-03-13 14:38:00,
2013-03-13 08:43:00,39.7,25.7,29.96,East,90,0.0,0.0,57,0.00,CLR,,0.00,WeatherDisplay:10.37,2013-03-13 14:43:00,
2013-03-13 08:48:00,40.1,25.6,29.97,ESE,112,0.0,0.0,56,0.00,CLR,,0.00,WeatherDisplay:10.37,2013-03-13 14:48:00,
2013-03-13 08:53:00,40.6,26.2,29.97,North,0,0.0,0.0,56,0.00,CLR,,0.00,WeatherDisplay:10.37,2013-03-13 14:53:00,
2013-03-13 08:58:00,41.0,26.1,29.97,NNW,338,0.0,0.0,55,0.00,CLR,,0.00,WeatherDisplay:10.37,2013-03-13 14:58:00,
2013-03-13 09:03:00,42.6,26.7,29.97,WSW,248,1.2,1.2,53,0.00,CLR,,0.00,WeatherDisplay:10.37,2013-03-13 15:03:00,
2013-03-13 09:08:00,43.2,27.2,29.97,SW,225,1.4,1.4,53,0.00,CLR,,0.00,WeatherDisplay:10.37,2013-03-13 15:08:00,
2013-03-13 09:13:00,43.7,27.2,29.97,SW,225,0.0,0.0,52,0.00,CLR,,0.00,WeatherDisplay:10.37,2013-03-13 15:13:00,
2013-03-13 09:18:00,44.2,27.2,29.97,WSW,248,2.3,2.3,51,0.00,CLR,,0.00,WeatherDisplay:10.37,2013-03-13 15:18:00,
2013-03-13 09:23:00,44.8,27.3,29.97,SSE,158,1.2,1.2,50,0.00,CLR,,0.00,WeatherDisplay:10.37,2013-03-13 15:23:00,
2013-03-13 09:28:00,45.3,27.8,29.97,SSW,202,1.2,1.2,50,0.00,CLR,,0.00,WeatherDisplay:10.37,2013-03-13 15:28:00,
2013-03-13 09:33:00,45.7,27.6,29.97,WSW,248,2.3,2.3,49,0.00,CLR,,0.00,WeatherDisplay:10.37,2013-03-13 15:33:00,
2013-03-13 09:38:00,46.6,27.9,29.97,SW,225,2.3,2.3,48,0.00,CLR,,0.00,WeatherDisplay:10.37,2013-03-13 15:38:00,
2013-03-13 09:43:00,47.1,27.9,29.97,SW,225,2.3,2.3,47,0.00,CLR,,0.00,WeatherDisplay:10.37,2013-03-13 15:43:00,
2013-03-13 09:48:00,47.8,28.0,29.97,SW,225,2.3,2.3,46,0.00,CLR,,0.00,WeatherDisplay:10.37,2013-03-13 15:48:00,
2013-03-13 09:53:00,48.2,27.8,29.97,SSW,202,0.5,0.5,45,0.00,CLR,,0.00,WeatherDisplay:10.37,2013-03-13 15:53:00,
2013-03-13 09:58:00,48.7,27.8,29.97,West,270,1.2,1.2,44,0.00,CLR,,0.00,WeatherDisplay:10.37,2013-03-13 15:58:00,
2013-03-13 10:03:00,49.3,27.7,29.97,WSW,248,2.3,2.3,43,0.00,CLR,,0.00,WeatherDisplay:10.37,2013-03-13 16:03:00,
2013-03-13 10:08:00,49.8,27.6,29.97,SW,225,2.4,2.4,42,0.00,CLR,,0.00,WeatherDisplay:10.37,2013-03-13 16:08:00,
2013-03-13 10:13:00,50.2,27.9,29.98,SW,225,1.2,1.2,42,0.00,CLR,,0.00,WeatherDisplay:10.37,2013-03-13 16:13:00,
2013-03-13 10:18:00,50.9,28.0,29.97,SW,225,1.2,1.2,41,0.00,CLR,,0.00,WeatherDisplay:10.37,2013-03-13 16:18:00,
2013-03-13 10:23:00,51.3,27.7,29.97,WSW,248,3.5,3.5,40,0.00,CLR,,0.00,WeatherDisplay:10.37,2013-03-13 16:23:00,
2013-03-13 10:28:00,52.2,27.9,29.97,SSW,202,2.3,2.3,39,0.00,CLR,,0.00,WeatherDisplay:10.37,2013-03-13 16:28:00,
2013-03-13 10:33:00,52.7,28.4,29.97,SSW,202,3.5,3.5,39,0.00,CLR,,0.00,WeatherDisplay:10.37,2013-03-13 16:33:00,
2013-03-13 10:38:00,53.2,28.3,29.97,SW,225,4.6,4.6,38,0.00,CLR,,0.00,WeatherDisplay:10.37,2013-03-13 16:38:00,
2013-03-13 10:43:00,53.8,28.7,29.98,SW,225,0.2,0.2,38,0.00,CLR,,0.00,WeatherDisplay:10.37,2013-03-13 16:43:00,
2013-03-13 10:48:00,54.7,26.8,29.97,SE,135,3.5,3.5,34,0.00,CLR,,0.00,WeatherDisplay:10.37,2013-03-13 16:48:00,
2013-03-13 10:53:00,55.2,28.0,29.98,SSW,202,3.5,3.5,35,0.00,CLR,,0.00,WeatherDisplay:10.37,2013-03-13 16:53:00,
2013-03-13 10:58:00,56.1,27.4,29.98,South,180,5.8,5.8,33,0.00,CLR,,0.00,WeatherDisplay:10.37,2013-03-13 16:58:00,
2013-03-13 11:03:00,56.5,26.9,29.97,WSW,248,2.3,2.3,32,0.00,CLR,,0.00,WeatherDisplay:10.37,2013-03-13 17:03:00,
2013-03-13 11:08:00,56.5,26.9,29.97,SSE,158,3.6,3.6,32,0.00,CLR,,0.00,WeatherDisplay:10.37,2013-03-13 17:08:00,
2013-03-13 11:13:00,57.0,27.4,29.97,South,180,2.3,2.3,32,0.00,CLR,,0.00,WeatherDisplay:10.37,2013-03-13 17:13:00,
2013-03-13 11:18:00,58.1,27.6,29.97,SW,225,2.3,2.3,31,0.00,CLR,,0.00,WeatherDisplay:10.37,2013-03-13 17:18:00,
2013-03-13 11:23:00,58.3,27.7,29.97,SE,135,3.5,3.5,31,0.00,CLR,,0.00,WeatherDisplay:10.37,2013-03-13 17:23:00,
2013-03-13 11:28:00,58.5,27.9,29.97,NW,315,0.5,0.5,31,0.00,CLR,,0.00,WeatherDisplay:10.37,2013-03-13 17:28:00,
2013-03-13 11:33:00,58.6,26.4,29.97,West,270,2.9,2.9,29,0.00,CLR,,0.00,WeatherDisplay:10.37,2013-03-13 17:33:00,
2013-03-13 11:38:00,58.6,26.4,29.97,WSW,248,2.3,2.3,29,0.00,CLR,,0.00,WeatherDisplay:10.37,2013-03-13 17:38:00,
2013-03-13 11:43:00,59.0,27.6,29.96,South,180,2.4,2.4,30,0.00,CLR,,0.00,WeatherDisplay:10.37,2013-03-13 17:43:00,
2013-03-13 11:48:00,60.1,26.8,29.96,SSW,202,4.6,4.6,28,0.00,CLR,,0.00,WeatherDisplay:10.37,2013-03-13 17:48:00,
2013-03-13 11:53:00,60.3,27.0,29.96,SW,225,2.3,2.3,28,0.00,CLR,,0.00,WeatherDisplay:10.37,2013-03-13 17:53:00,
2013-03-13 11:58:00,60.4,28.0,29.96,South,180,2.3,2.3,29,0.00,CLR,,0.00,WeatherDisplay:10.37,2013-03-13 17:58:00,
2013-03-13 12:03:00,61.5,28.1,29.96,WSW,248,3.5,3.5,28,0.00,CLR,,0.00,WeatherDisplay:10.37,2013-03-13 18:03:00,
2013-03-13 12:08:00,62.2,29.6,29.96,SSE,158,1.2,1.2,29,0.00,CLR,,0.00,WeatherDisplay:10.37,2013-03-13 18:08:00,
2013-03-13 12:13:00,63.3,29.6,29.95,NNE,22,4.0,4.0,28,0.00,CLR,,0.00,WeatherDisplay:10.37,2013-03-13 18:13:00,
2013-03-13 12:18:00,64.4,30.6,29.95,NE,45,2.3,2.3,28,0.00,CLR,,0.00,WeatherDisplay:10.37,2013-03-13 18:18:00,
2013-03-13 12:23:00,64.9,31.0,29.95,South,180,3.8,3.8,28,0.00,CLR,,0.00,WeatherDisplay:10.37,2013-03-13 18:23:00,
2013-03-13 12:28:00,65.5,29.7,29.95,ENE,68,1.4,1.4,26,0.00,CLR,,0.00,WeatherDisplay:10.37,2013-03-13 18:28:00,
2013-03-13 12:33:00,66.6,30.6,29.94,ESE,112,3.5,3.5,26,0.00,CLR,,0.00,WeatherDisplay:10.37,2013-03-13 18:33:00,
2013-03-13 12:38:00,66.7,29.8,29.94,NW,315,1.2,1.2,25,0.00,CLR,,0.00,WeatherDisplay:10.37,2013-03-13 18:38:00,
2013-03-13 12:43:00,66.0,28.2,29.94,SE,135,1.2,1.2,24,0.00,CLR,,0.00,WeatherDisplay:10.37,2013-03-13 18:43:00,
2013-03-13 12:48:00,66.2,29.3,29.94,ESE,112,4.6,4.6,25,0.00,CLR,,0.00,WeatherDisplay:10.37,2013-03-13 18:48:00,
2013-03-13 12:53:00,66.7,28.8,29.94,SW,225,2.4,2.4,24,0.00,CLR,,0.00,WeatherDisplay:10.37,2013-03-13 18:53:00,
2013-03-13 12:58:00,66.2,27.3,29.94,West,270,1.2,1.2,23,0.00,CLR,,0.00,WeatherDisplay:10.37,2013-03-13 18:58:00,
2013-03-13 13:03:00,65.1,27.4,29.94,NW,315,2.3,2.3,24,0.00,CLR,,0.00,WeatherDisplay:10.37,2013-03-13 19:03:00,
2013-03-13 13:08:00,64.8,27.1,29.94,North,0,2.3,2.4,24,0.00,CLR,,0.00,WeatherDisplay:10.37,2013-03-13 19:08:00,
2013-03-13 13:13:00,65.1,27.4,29.93,NNW,338,3.5,3.5,24,0.00,CLR,,0.00,WeatherDisplay:10.37,2013-03-13 19:13:00,
2013-03-13 13:18:00,65.1,27.4,29.93,NNE,22,2.6,2.6,24,0.00,CLR,,0.00,WeatherDisplay:10.37,2013-03-13 19:18:00,
2013-03-13 13:23:00,65.5,27.7,29.93,West,270,3.8,3.8,24,0.00,CLR,,0.00,WeatherDisplay:10.37,2013-03-13 19:23:00,
2013-03-13 13:28:00,65.7,26.8,29.92,SW,225,5.8,5.8,23,0.00,CLR,,0.00,WeatherDisplay:10.37,2013-03-13 19:28:00,
2013-03-13 13:33:00,65.8,28.0,29.92,NW,315,2.3,2.3,24,0.00,CLR,,0.00,WeatherDisplay:10.37,2013-03-13 19:33:00,
2013-03-13 13:38:00,66.2,27.3,29.92,WNW,292,3.5,3.5,23,0.00,CLR,,0.00,WeatherDisplay:10.37,2013-03-13 19:38:00,
2013-03-13 13:43:00,65.8,25.9,29.92,NW,315,2.4,2.4,22,0.00,CLR,,0.00,WeatherDisplay:10.37,2013-03-13 19:43:00,
2013-03-13 13:48:00,65.8,25.9,29.91,WNW,292,3.5,3.6,22,0.00,CLR,,0.00,WeatherDisplay:10.37,2013-03-13 19:48:00,
2013-03-13 13:53:00,66.2,27.3,29.91,SW,225,5.8,5.8,23,0.00,CLR,,0.00,WeatherDisplay:10.37,2013-03-13 19:53:00,
2013-03-13 13:58:00,66.9,27.9,29.91,SSW,202,1.2,1.2,23,0.00,CLR,,0.00,WeatherDisplay:10.37,2013-03-13 19:58:00,
2013-03-13 14:03:00,67.6,28.5,29.91,WNW,292,2.3,2.3,23,0.00,CLR,,0.00,WeatherDisplay:10.37,2013-03-13 20:03:00,
2013-03-13 14:08:00,67.8,27.6,29.90,West,270,2.3,2.3,22,0.00,CLR,,0.00,WeatherDisplay:10.37,2013-03-13 20:08:00,
2013-03-13 14:13:00,67.6,27.4,29.90,NW,315,2.3,2.3,22,0.00,CLR,,0.00,WeatherDisplay:10.37,2013-03-13 20:13:00,
2013-03-13 14:18:00,67.8,27.6,29.90,NNW,338,4.6,4.7,22,0.00,CLR,,0.00,WeatherDisplay:10.37,2013-03-13 20:18:00,
2013-03-13 14:23:00,67.1,26.9,29.90,WNW,292,4.6,4.6,22,0.00,CLR,,0.00,WeatherDisplay:10.37,2013-03-13 20:23:00,
2013-03-13 14:28:00,67.1,26.9,29.89,NW,315,5.2,5.2,22,0.00,CLR,,0.00,WeatherDisplay:10.37,2013-03-13 20:28:00,
2013-03-13 14:33:00,67.3,28.2,29.89,WSW,248,3.5,3.5,23,0.00,CLR,,0.00,WeatherDisplay:10.37,2013-03-13 20:33:00,
2013-03-13 14:38:00,67.5,27.2,29.89,SW,225,6.9,6.9,22,0.00,CLR,,0.00,WeatherDisplay:10.37,2013-03-13 20:38:00,
2013-03-13 14:43:00,67.6,27.4,29.89,SSE,158,2.3,4.0,22,0.00,CLR,,0.00,WeatherDisplay:10.37,2013-03-13 20:43:00,
2013-03-13 14:48:00,68.4,28.0,29.88,WNW,292,4.0,4.0,22,0.00,CLR,,0.00,WeatherDisplay:10.37,2013-03-13 20:48:00,
2013-03-13 14:53:00,68.5,28.2,29.88,NNW,338,2.3,2.3,22,0.00,CLR,,0.00,WeatherDisplay:10.37,2013-03-13 20:53:00,
2013-03-13 14:58:00,68.7,28.3,29.88,NW,315,2.6,2.6,22,0.00,CLR,,0.00,WeatherDisplay:10.37,2013-03-13 20:58:00,
2013-03-13 15:03:00,69.1,27.5,29.88,WNW,292,2.3,2.3,21,0.00,CLR,,0.00,WeatherDisplay:10.37,2013-03-13 21:03:00,
2013-03-13 15:08:00,69.3,28.8,29.88,West,270,1.6,1.6,22,0.00,CLR,,0.00,WeatherDisplay:10.37,2013-03-13 21:08:00,
2013-03-13 15:13:00,69.4,27.8,29.88,NNW,338,3.5,3.5,21,0.00,CLR,,0.00,WeatherDisplay:10.37,2013-03-13 21:13:00,
2013-03-13 15:18:00,69.4,27.8,29.88,ENE,68,2.3,2.3,21,0.00,CLR,,0.00,WeatherDisplay:10.37,2013-03-13 21:18:00,
2013-03-13 15:23:00,69.6,27.9,29.88,NNW,338,7.1,7.1,21,0.00,CLR,,0.00,WeatherDisplay:10.37,2013-03-13 21:23:00,
2013-03-13 15:28:00,69.4,27.8,29.88,West,270,2.3,2.3,21,0.00,CLR,,0.00,WeatherDisplay:10.37,2013-03-13 21:28:00,
2013-03-13 15:33:00,70.2,28.4,29.88,West,270,4.7,4.7,21,0.00,CLR,,0.00,WeatherDisplay:10.37,2013-03-13 21:33:00,
2013-03-13 15:38:00,70.2,28.4,29.87,NW,315,2.4,2.4,21,0.00,CLR,,0.00,WeatherDisplay:10.37,2013-03-13 21:38:00,
2013-03-13 15:43:00,70.2,27.2,29.87,WSW,248,4.6,4.6,20,0.00,CLR,,0.00,WeatherDisplay:10.37,2013-03-13 21:43:00,
2013-03-13 15:48:00,70.3,26.1,29.87,SW,225,2.3,2.3,19,0.00,CLR,,0.00,WeatherDisplay:10.37,2013-03-13 21:48:00,
2013-03-13 15:53:00,70.2,25.9,29.87,SSW,202,3.6,3.6,19,0.00,CLR,,0.00,WeatherDisplay:10.37,2013-03-13 21:53:00,
2013-03-13 15:58:00,70.9,26.5,29.87,SW,225,2.3,2.3,19,0.00,CLR,,0.00,WeatherDisplay:10.37,2013-03-13 21:58:00,
2013-03-13 16:03:00,71.2,26.8,29.87,West,270,4.6,4.6,19,0.00,CLR,,0.00,WeatherDisplay:10.37,2013-03-13 22:03:00,
2013-03-13 16:08:00,70.9,26.5,29.87,NW,315,4.7,4.7,19,0.00,CLR,,0.00,WeatherDisplay:10.37,2013-03-13 22:08:00,
2013-03-13 16:13:00,70.5,26.2,29.87,North,0,2.3,2.4,19,0.00,CLR,,0.00,WeatherDisplay:10.37,2013-03-13 22:13:00,
2013-03-13 16:19:00,70.7,26.4,29.87,SW,225,3.5,3.5,19,0.00,CLR,,0.00,WeatherDisplay:10.37,2013-03-13 22:19:00,
2013-03-13 16:24:00,70.9,26.5,29.87,West,270,4.6,4.6,19,0.00,CLR,,0.00,WeatherDisplay:10.37,2013-03-13 22:24:00,
2013-03-13 16:29:00,70.9,26.5,29.87,WSW,248,2.3,2.3,19,0.00,CLR,,0.00,WeatherDisplay:10.37,2013-03-13 22:29:00,
2013-03-13 16:34:00,71.2,26.8,29.86,NW,315,3.5,3.5,19,0.00,CLR,,0.00,WeatherDisplay:10.37,2013-03-13 22:34:00,
2013-03-13 16:39:00,71.2,25.5,29.86,NNW,338,2.3,2.3,18,0.00,CLR,,0.00,WeatherDisplay:10.37,2013-03-13 22:39:00,
2013-03-13 16:44:00,71.4,27.0,29.86,SW,225,1.4,1.4,19,0.00,CLR,,0.00,WeatherDisplay:10.37,2013-03-13 22:44:00,
2013-03-13 16:49:00,71.6,25.8,29.86,NW,315,2.4,2.4,18,0.00,CLR,,0.00,WeatherDisplay:10.37,2013-03-13 22:49:00,
2013-03-13 16:54:00,71.4,25.7,29.86,NNW,338,3.5,3.5,18,0.00,CLR,,0.00,WeatherDisplay:10.37,2013-03-13 22:54:00,
2013-03-13 16:59:00,70.9,23.9,29.86,NW,315,5.8,5.8,17,0.00,CLR,,0.00,WeatherDisplay:10.37,2013-03-13 22:59:00,
2013-03-13 17:04:00,70.9,25.2,29.86,WNW,292,0.2,0.2,18,0.00,CLR,,0.00,WeatherDisplay:10.37,2013-03-13 23:04:00,
2013-03-13 17:09:00,70.9,25.2,29.86,NNW,338,3.5,3.5,18,0.00,CLR,,0.00,WeatherDisplay:10.37,2013-03-13 23:09:00,
2013-03-13 17:14:00,71.2,25.5,29.86,West,270,2.4,2.4,18,0.00,CLR,,0.00,WeatherDisplay:10.37,2013-03-13 23:14:00,
2013-03-13 17:19:00,71.2,24.1,29.86,West,270,3.6,3.6,17,0.00,CLR,,0.00,WeatherDisplay:10.37,2013-03-13 23:19:00,
2013-03-13 17:24:00,70.9,25.2,29.85,WSW,248,3.5,3.5,18,0.00,CLR,,0.00,WeatherDisplay:10.37,2013-03-13 23:24:00,
2013-03-13 17:29:00,70.9,25.2,29.85,NNW,338,1.2,1.2,18,0.00,CLR,,0.00,WeatherDisplay:10.37,2013-03-13 23:29:00,
2013-03-13 17:34:00,70.5,24.9,29.85,WNW,292,3.5,3.5,18,0.00,CLR,,0.00,WeatherDisplay:10.37,2013-03-13 23:34:00,
2013-03-13 17:39:00,70.0,24.5,29.85,SW,225,3.5,3.5,18,0.00,CLR,,0.00,WeatherDisplay:10.37,2013-03-13 23:39:00,
2013-03-13 17:44:00,70.2,24.6,29.85,NNW,338,3.8,3.8,18,0.00,CLR,,0.00,WeatherDisplay:10.37,2013-03-13 23:44:00,
2013-03-13 17:49:00,69.8,24.3,29.85,NNW,338,1.6,1.6,18,0.00,CLR,,0.00,WeatherDisplay:10.37,2013-03-13 23:49:00,
2013-03-13 17:54:00,69.8,24.3,29.85,WSW,248,1.2,1.2,18,0.00,CLR,,0.00,WeatherDisplay:10.37,2013-03-13 23:54:00,
2013-03-13 17:59:00,70.2,24.6,29.84,SW,225,4.6,4.6,18,0.00,CLR,,0.00,WeatherDisplay:10.37,2013-03-13 23:59:00,
2013-03-13 18:04:00,70.0,23.1,29.84,NNW,338,3.5,3.5,17,0.00,CLR,,0.00,WeatherDisplay:10.37,2013-03-14 00:04:00,
2013-03-13 18:09:00,69.8,24.3,29.84,North,0,2.6,2.6,18,0.00,CLR,,0.00,WeatherDisplay:10.37,2013-03-14 00:09:00,
2013-03-13 18:14:00,69.8,24.3,29.84,WSW,248,3.5,3.5,18,0.00,CLR,,0.00,WeatherDisplay:10.37,2013-03-14 00:14:00,
2013-03-13 18:19:00,69.6,24.2,29.84,WNW,292,5.8,5.8,18,0.00,CLR,,0.00,WeatherDisplay:10.37,2013-03-14 00:19:00,
2013-03-13 18:24:00,69.4,24.0,29.85,WSW,248,2.3,2.6,18,0.00,CLR,,0.00,WeatherDisplay:10.37,2013-03-14 00:24:00,
2013-03-13 18:29:00,69.1,23.8,29.84,SW,225,2.4,2.4,18,0.00,CLR,,0.00,WeatherDisplay:10.37,2013-03-14 00:29:00,
2013-03-13 18:34:00,68.9,24.9,29.84,SW,225,1.6,1.6,19,0.00,CLR,,0.00,WeatherDisplay:10.37,2013-03-14 00:34:00,
2013-03-13 18:39:00,68.5,27.0,29.84,West,270,1.2,1.2,21,0.00,CLR,,0.00,WeatherDisplay:10.37,2013-03-14 00:39:00,
2013-03-13 18:44:00,68.2,26.7,29.85,WNW,292,1.2,1.2,21,0.00,CLR,,0.00,WeatherDisplay:10.37,2013-03-14 00:44:00,
2013-03-13 18:49:00,67.5,23.7,29.85,North,0,2.9,2.9,19,0.00,CLR,,0.00,WeatherDisplay:10.37,2013-03-14 00:49:00,
2013-03-13 18:54:00,67.3,23.6,29.85,NW,315,4.9,4.9,19,0.00,CLR,,0.00,WeatherDisplay:10.37,2013-03-14 00:54:00,
2013-03-13 18:59:00,66.6,23.0,29.85,NW,315,4.6,4.6,19,0.00,CLR,,0.00,WeatherDisplay:10.37,2013-03-14 00:59:00,
2013-03-13 19:04:00,66.4,22.8,29.85,WNW,292,6.9,6.9,19,0.00,CLR,,0.00,WeatherDisplay:10.37,2013-03-14 01:04:00,
2013-03-13 19:09:00,65.7,22.2,29.85,NNW,338,4.6,4.6,19,0.00,CLR,,0.00,WeatherDisplay:10.37,2013-03-14 01:09:00,
2013-03-13 19:14:00,65.1,21.8,29.85,NW,315,4.6,4.6,19,0.00,CLR,,0.00,WeatherDisplay:10.37,2013-03-14 01:14:00,
2013-03-13 19:19:00,64.8,21.5,29.85,NW,315,4.7,4.7,19,0.00,CLR,,0.00,WeatherDisplay:10.37,2013-03-14 01:19:00,
2013-03-13 19:24:00,64.4,21.2,29.85,NNW,338,4.6,4.6,19,0.00,CLR,,0.00,WeatherDisplay:10.37,2013-03-14 01:24:00,
2013-03-13 19:29:00,64.2,21.0,29.85,WNW,292,3.5,3.5,19,0.00,CLR,,0.00,WeatherDisplay:10.37,2013-03-14 01:29:00,
2013-03-13 19:34:00,63.7,21.8,29.85,NNW,338,3.5,3.5,20,0.00,CLR,,0.00,WeatherDisplay:10.37,2013-03-14 01:34:00,
2013-03-13 19:39:00,63.3,22.7,29.85,NNW,338,2.4,2.4,21,0.00,CLR,,0.00,WeatherDisplay:10.37,2013-03-14 01:39:00,
2013-03-13 19:44:00,63.0,22.4,29.86,NW,315,2.3,2.3,21,0.00,CLR,,0.00,WeatherDisplay:10.37,2013-03-14 01:44:00,
2013-03-13 19:49:00,62.6,22.1,29.86,NW,315,3.5,3.6,21,0.00,CLR,,0.00,WeatherDisplay:10.37,2013-03-14 01:49:00,
2013-03-13 19:54:00,62.4,21.9,29.86,NNW,338,2.9,2.9,21,0.00,CLR,,0.00,WeatherDisplay:10.37,2013-03-14 01:54:00,
2013-03-13 19:59:00,62.2,21.8,29.86,NNW,338,2.4,2.4,21,0.00,CLR,,0.00,WeatherDisplay:10.37,2013-03-14 01:59:00,
2013-03-13 20:04:00,61.9,21.5,29.86,NW,315,3.5,3.5,21,0.00,CLR,,0.00,WeatherDisplay:10.37,2013-03-14 02:04:00,
2013-03-13 20:09:00,61.5,21.2,29.86,NNW,338,1.2,1.2,21,0.00,CLR,,0.00,WeatherDisplay:10.37,2013-03-14 02:09:00,
2013-03-13 20:14:00,61.3,21.0,29.86,North,0,0.2,0.2,21,0.00,CLR,,0.00,WeatherDisplay:10.37,2013-03-14 02:14:00,
2013-03-13 20:19:00,60.6,20.4,29.86,NW,315,1.2,1.2,21,0.00,CLR,,0.00,WeatherDisplay:10.37,2013-03-14 02:19:00,
2013-03-13 20:24:00,60.1,20.0,29.86,NNE,22,1.2,1.2,21,0.00,CLR,,0.00,WeatherDisplay:10.37,2013-03-14 02:24:00,
2013-03-13 20:29:00,59.7,19.7,29.86,NW,315,1.2,1.2,21,0.00,CLR,,0.00,WeatherDisplay:10.37,2013-03-14 02:29:00,
2013-03-13 20:34:00,59.4,19.4,29.87,NNW,338,2.6,2.6,21,0.00,CLR,,0.00,WeatherDisplay:10.37,2013-03-14 02:34:00,
2013-03-13 20:39:00,59.2,19.2,29.86,NNW,338,3.5,3.5,21,0.00,CLR,,0.00,WeatherDisplay:10.37,2013-03-14 02:39:00,
2013-03-13 20:44:00,59.0,20.2,29.87,NNW,338,2.3,2.4,22,0.00,CLR,,0.00,WeatherDisplay:10.37,2013-03-14 02:44:00,
2013-03-13 20:49:00,58.8,20.0,29.87,North,0,1.4,1.4,22,0.00,CLR,,0.00,WeatherDisplay:10.37,2013-03-14 02:49:00,
2013-03-13 20:54:00,58.6,19.9,29.87,NW,315,2.9,2.9,22,0.00,CLR,,0.00,WeatherDisplay:10.37,2013-03-14 02:54:00,
2013-03-13 20:59:00,58.6,19.9,29.87,WNW,292,2.3,2.3,22,0.00,CLR,,0.00,WeatherDisplay:10.37,2013-03-14 02:59:00,
2013-03-13 21:04:00,58.6,19.9,29.87,NNW,338,0.2,0.2,22,0.00,CLR,,0.00,WeatherDisplay:10.37,2013-03-14 03:04:00,
2013-03-13 21:09:00,58.3,19.6,29.87,North,0,1.2,1.2,22,0.00,CLR,,0.00,WeatherDisplay:10.37,2013-03-14 03:09:00,
2013-03-13 21:14:00,57.9,19.2,29.87,NW,315,1.2,1.2,22,0.00,CLR,,0.00,WeatherDisplay:10.37,2013-03-14 03:14:00,
2013-03-13 21:19:00,57.9,19.2,29.88,WNW,292,1.2,1.2,22,0.00,CLR,,0.00,WeatherDisplay:10.37,2013-03-14 03:19:00,
2013-03-13 21:24:00,57.6,18.9,29.88,NW,315,1.2,1.2,22,0.00,CLR,,0.00,WeatherDisplay:10.37,2013-03-14 03:24:00,
2013-03-13 21:29:00,57.2,18.6,29.88,WNW,292,0.5,0.5,22,0.00,CLR,,0.00,WeatherDisplay:10.37,2013-03-14 03:29:00,
2013-03-13 21:34:00,56.7,19.2,29.88,NNW,338,1.2,1.2,23,0.00,CLR,,0.00,WeatherDisplay:10.37,2013-03-14 03:34:00,
2013-03-13 21:39:00,56.3,18.9,29.89,North,0,0.5,0.5,23,0.00,CLR,,0.00,WeatherDisplay:10.37,2013-03-14 03:39:00,
2013-03-13 21:44:00,56.1,18.8,29.89,North,0,1.2,1.2,23,0.00,CLR,,0.00,WeatherDisplay:10.37,2013-03-14 03:44:00,
2013-03-13 21:49:00,55.8,18.5,29.89,North,0,2.3,2.3,23,0.00,CLR,,0.00,WeatherDisplay:10.37,2013-03-14 03:49:00,
2013-03-13 21:54:00,55.8,19.5,29.89,NW,315,2.3,2.3,24,0.00,CLR,,0.00,WeatherDisplay:10.37,2013-03-14 03:54:00,
2013-03-13 21:59:00,56.1,19.8,29.89,NW,315,2.3,2.3,24,0.00,CLR,,0.00,WeatherDisplay:10.37,2013-03-14 03:59:00,
2013-03-13 22:00:00,55.9,18.6,29.89,NW,315,1.2,1.2,23,0.00,CLR,,0.00,WeatherDisplay:10.37,2013-03-14 04:00:00,
2013-03-13 22:05:00,55.9,18.6,29.89,North,0,2.3,2.3,23,0.00,CLR,,0.00,WeatherDisplay:10.37,2013-03-14 04:05:00,
2013-03-13 22:10:00,55.8,18.5,29.89,NNW,338,1.2,1.2,23,0.00,CLR,,0.00,WeatherDisplay:10.37,2013-03-14 04:10:00,
2013-03-13 22:15:00,55.4,19.2,29.89,NNW,338,2.2,2.2,24,0.00,CLR,,0.00,WeatherDisplay:10.37,2013-03-14 04:15:00,
2013-03-13 22:20:00,55.0,17.9,29.89,North,0,1.2,1.2,23,0.00,CLR,,0.00,WeatherDisplay:10.37,2013-03-14 04:20:00,
2013-03-13 22:25:00,54.7,18.5,29.89,NNW,338,1.2,1.2,24,0.00,CLR,,0.00,WeatherDisplay:10.37,2013-03-14 04:25:00,
2013-03-13 22:30:00,54.3,17.3,29.89,NNW,338,2.3,2.3,23,0.00,CLR,,0.00,WeatherDisplay:10.37,2013-03-14 04:30:00,
2013-03-13 22:35:00,54.0,17.9,29.89,NNE,22,0.5,0.5,24,0.00,CLR,,0.00,WeatherDisplay:10.37,2013-03-14 04:35:00,
2013-03-13 22:40:00,53.6,17.6,29.89,North,0,0.0,0.0,24,0.00,CLR,,0.00,WeatherDisplay:10.37,2013-03-14 04:40:00,
2013-03-13 22:45:00,53.1,17.2,29.89,NNE,22,0.5,0.5,24,0.00,CLR,,0.00,WeatherDisplay:10.37,2013-03-14 04:45:00,
2013-03-13 22:50:00,52.7,16.9,29.89,NNE,22,0.2,0.2,24,0.00,CLR,,0.00,WeatherDisplay:10.37,2013-03-14 04:50:00,
2013-03-13 22:55:00,52.3,17.5,29.89,NNW,338,0.0,0.0,25,0.00,CLR,,0.00,WeatherDisplay:10.37,2013-03-14 04:55:00,
2013-03-13 23:00:00,52.2,17.3,29.89,NNW,338,1.2,0.0,25,0.00,CLR,,0.00,WeatherDisplay:10.37,2013-03-14 05:00:00,
2013-03-13 23:05:00,51.6,16.9,29.89,NNW,338,0.0,0.0,25,0.00,CLR,,0.00,WeatherDisplay:10.37,2013-03-14 05:05:00,
2013-03-13 23:10:00,51.3,16.6,29.89,NNW,338,0.0,0.0,25,0.00,CLR,,0.00,WeatherDisplay:10.37,2013-03-14 05:10:00,
2013-03-13 23:15:00,51.1,16.4,29.89,North,0,0.5,0.5,25,0.00,CLR,,0.00,WeatherDisplay:10.37,2013-03-14 05:15:00,
2013-03-13 23:20:00,50.9,17.2,29.89,NNW,338,0.0,0.0,26,0.00,CLR,,0.00,WeatherDisplay:10.37,2013-03-14 05:20:00,
2013-03-13 23:25:00,50.7,17.0,29.89,North,0,0.0,0.0,26,0.00,CLR,,0.00,WeatherDisplay:10.37,2013-03-14 05:25:00,
2013-03-13 23:30:00,50.4,16.7,29.89,North,0,0.0,0.0,26,0.00,CLR,,0.00,WeatherDisplay:10.37,2013-03-14 05:30:00,
2013-03-13 23:35:00,50.0,17.3,29.89,North,0,0.0,0.0,27,0.00,CLR,,0.00,WeatherDisplay:10.37,2013-03-14 05:35:00,
2013-03-13 23:40:00,49.6,17.0,29.89,NNE,22,0.0,0.0,27,0.00,CLR,,0.00,WeatherDisplay:10.37,2013-03-14 05:40:00,
2013-03-13 23:45:00,49.3,16.7,29.90,NNE,22,0.0,0.0,27,0.00,CLR,,0.00,WeatherDisplay:10.37,2013-03-14 05:45:00,
2013-03-13 23:50:00,48.7,17.0,29.90,NE,45,0.0,0.0,28,0.00,CLR,,0.00,WeatherDisplay:10.37,2013-03-14 05:50:00,
2013-03-13 23:55:00,48.4,16.7,29.90,NE,45,0.0,0.0,28,0.00,CLR,,0.00,WeatherDisplay:10.37,2013-03-14 05:55:00,